createdAt,value
2018-09-19T00:00:24.536Z,55.36
2018-09-19T00:02:48.440Z,54.34
2018-09-19T00:05:12.371Z,54.78
2018-09-19T00:07:36.241Z,54.67
2018-09-19T00:10:00.144Z,55.08
2018-09-19T00:12:24.027Z,55.14
2018-09-19T00:14:47.904Z,54.16
2018-09-19T00:17:11.841Z,55.31
2018-09-19T00:19:35.730Z,55.49
2018-09-19T00:21:59.620Z,55.01
2018-09-19T00:24:23.543Z,55.15
2018-09-19T00:26:47.460Z,54.43
2018-09-19T00:29:11.374Z,56.12
2018-09-19T00:31:35.286Z,56.42
2018-09-19T00:33:59.162Z,56.44
2018-09-19T00:36:23.619Z,56.56
2018-09-19T00:38:47.509Z,57.04
2018-09-19T00:41:11.428Z,57.23
2018-09-19T00:43:35.359Z,56.23
2018-09-19T00:45:59.258Z,55.88
2018-09-19T00:48:23.131Z,56.38
2018-09-19T00:50:47.053Z,56.89
2018-09-19T00:53:10.961Z,56.98
2018-09-19T00:55:34.872Z,57.26
2018-09-19T00:57:58.873Z,56.59
2018-09-19T01:00:22.752Z,57.50
2018-09-19T01:02:46.635Z,57.78
2018-09-19T01:05:10.573Z,57.65
2018-09-19T01:07:34.497Z,58.20
2018-09-19T01:09:58.445Z,58.27
2018-09-19T01:12:22.354Z,57.71
2018-09-19T01:14:46.320Z,57.21
2018-09-19T01:17:10.249Z,57.27
2018-09-19T01:19:34.164Z,58.10
2018-09-19T01:21:58.094Z,57.89
2018-09-19T01:24:21.977Z,57.36
2018-09-19T01:26:45.913Z,57.98
2018-09-19T01:29:09.784Z,58.27
2018-09-19T01:31:33.680Z,58.10
2018-09-19T01:33:57.786Z,58.43
2018-09-19T01:36:21.666Z,58.76
2018-09-19T01:38:45.639Z,58.26
2018-09-19T01:41:09.579Z,58.64
2018-09-19T01:43:33.565Z,58.35
2018-09-19T01:45:57.535Z,58.46
2018-09-19T01:48:21.736Z,58.80
2018-09-19T01:50:45.783Z,58.73
2018-09-19T01:53:09.788Z,59.00
2018-09-19T01:55:33.781Z,59.11
2018-09-19T01:57:57.771Z,59.23
2018-09-19T02:00:21.727Z,60.14
2018-09-19T02:02:45.827Z,58.52
2018-09-19T02:05:09.858Z,59.62
2018-09-19T02:07:33.799Z,60.64
2018-09-19T02:09:57.829Z,59.76
2018-09-19T02:12:21.711Z,60.26
2018-09-19T02:14:45.757Z,60.37
2018-09-19T02:17:09.630Z,60.12
2018-09-19T02:19:33.589Z,60.23
2018-09-19T02:21:57.555Z,59.81
2018-09-19T02:24:21.417Z,60.48
2018-09-19T02:26:45.342Z,60.50
2018-09-19T02:29:09.410Z,60.24
2018-09-19T02:31:33.510Z,60.18
2018-09-19T02:33:57.410Z,61.07
2018-09-19T02:36:25.353Z,61.29
2018-09-19T02:38:49.483Z,60.56
2018-09-19T02:41:13.453Z,60.74
2018-09-19T02:43:37.361Z,61.93
2018-09-19T02:46:01.283Z,61.14
2018-09-19T02:48:25.227Z,60.93
2018-09-19T02:50:49.095Z,60.03
2018-09-19T02:53:12.989Z,61.11
2018-09-19T02:55:36.858Z,61.71
2018-09-19T02:58:00.794Z,61.14
2018-09-19T03:00:24.704Z,60.75
2018-09-19T03:02:48.679Z,61.18
2018-09-19T03:05:12.585Z,60.99
2018-09-19T03:07:36.540Z,61.57
2018-09-19T03:10:00.463Z,61.67
2018-09-19T03:12:24.413Z,60.78
2018-09-19T03:14:48.300Z,61.20
2018-09-19T03:17:12.238Z,60.40
2018-09-19T03:19:36.131Z,60.65
2018-09-19T03:21:59.999Z,60.72
2018-09-19T03:24:24.003Z,60.42
2018-09-19T03:26:47.859Z,59.52
2018-09-19T03:29:11.759Z,60.08
2018-09-19T03:31:35.679Z,59.10
2018-09-19T03:33:59.570Z,59.76
2018-09-19T03:36:23.480Z,60.18
2018-09-19T03:38:47.421Z,59.25
2018-09-19T03:41:11.364Z,60.00
2018-09-19T03:43:35.254Z,59.70
2018-09-19T03:45:59.124Z,59.52
2018-09-19T03:48:23.056Z,59.87
2018-09-19T03:50:46.999Z,59.89
2018-09-19T03:53:10.887Z,58.88
2018-09-19T03:55:34.763Z,59.92
2018-09-19T03:57:58.711Z,60.36
2018-09-19T04:00:22.570Z,59.48
2018-09-19T04:02:46.468Z,59.56
2018-09-19T04:05:10.391Z,59.82
2018-09-19T04:07:34.323Z,60.16
2018-09-19T04:09:58.200Z,60.63
2018-09-19T04:12:22.120Z,59.33
2018-09-19T04:14:46.044Z,60.27
2018-09-19T04:17:09.993Z,60.33
2018-09-19T04:19:33.934Z,59.46
2018-09-19T04:21:57.802Z,60.39
2018-09-19T04:24:21.727Z,59.67
2018-09-19T04:26:45.677Z,60.44
2018-09-19T04:29:09.569Z,59.55
2018-09-19T04:31:33.510Z,59.93
2018-09-19T04:33:57.400Z,59.82
2018-09-19T04:36:21.314Z,59.52
2018-09-19T04:38:45.169Z,58.98
2018-09-19T04:41:09.165Z,59.44
2018-09-19T04:43:33.136Z,59.43
2018-09-19T04:45:57.041Z,58.99
2018-09-19T04:48:21.057Z,59.17
2018-09-19T04:50:44.934Z,60.09
2018-09-19T04:53:09.140Z,60.16
2018-09-19T04:55:33.042Z,59.54
2018-09-19T04:57:56.984Z,59.67
2018-09-19T05:00:20.908Z,59.82
2018-09-19T05:02:44.798Z,59.73
2018-09-19T05:05:08.725Z,59.89
2018-09-19T05:07:32.633Z,60.00
2018-09-19T05:09:56.561Z,60.18
2018-09-19T05:12:20.491Z,59.88
2018-09-19T05:14:44.394Z,59.87
2018-09-19T05:17:08.286Z,59.88
2018-09-19T05:19:32.212Z,59.53
2018-09-19T05:21:56.126Z,60.30
2018-09-19T05:24:20.033Z,60.37
2018-09-19T05:26:43.903Z,60.74
2018-09-19T05:29:07.881Z,59.93
2018-09-19T05:31:31.921Z,60.59
2018-09-19T05:33:55.784Z,60.54
2018-09-19T05:36:19.700Z,60.48
2018-09-19T05:38:43.610Z,60.29
2018-09-19T05:41:07.785Z,60.58
2018-09-19T05:43:31.657Z,60.12
2018-09-19T05:45:55.659Z,60.50
2018-09-19T05:48:19.659Z,60.55
2018-09-19T05:50:43.525Z,60.99
2018-09-19T05:53:07.437Z,60.67
2018-09-19T05:55:31.315Z,60.12
2018-09-19T05:57:55.325Z,60.23
2018-09-19T06:00:19.223Z,60.19
2018-09-19T06:02:43.085Z,59.52
2018-09-19T06:05:07.233Z,60.19
2018-09-19T06:07:31.142Z,60.89
2018-09-19T06:09:55.054Z,60.68
2018-09-19T06:12:19.061Z,60.36
2018-09-19T06:14:43.079Z,59.48
2018-09-19T06:17:07.092Z,60.06
2018-09-19T06:19:30.971Z,60.61
2018-09-19T06:21:54.911Z,60.30
2018-09-19T06:24:18.838Z,60.64
2018-09-19T06:26:42.720Z,60.66
2018-09-19T06:29:06.789Z,60.28
2018-09-19T06:31:30.686Z,60.45
2018-09-19T06:33:54.567Z,61.97
2018-09-19T06:36:18.584Z,60.91
2018-09-19T06:38:42.502Z,61.31
2018-09-19T06:41:06.372Z,61.18
2018-09-19T06:43:30.439Z,62.03
2018-09-19T06:45:54.339Z,61.78
2018-09-19T06:48:18.294Z,62.42
2018-09-19T06:50:42.315Z,62.09
2018-09-19T06:53:06.329Z,62.15
2018-09-19T06:55:30.185Z,62.59
2018-09-19T06:57:54.097Z,61.20
2018-09-19T07:00:17.992Z,62.75
2018-09-19T07:02:41.897Z,61.52
2018-09-19T07:05:05.968Z,61.66
2018-09-19T07:07:29.831Z,61.80
2018-09-19T07:09:53.723Z,61.99
2018-09-19T07:12:17.633Z,61.70
2018-09-19T07:14:41.525Z,60.49
2018-09-19T07:17:05.491Z,60.51
2018-09-19T07:19:29.504Z,60.52
2018-09-19T07:21:53.558Z,60.25
2018-09-19T07:24:17.446Z,60.90
2018-09-19T07:26:41.583Z,60.09
2018-09-19T07:29:05.674Z,59.86
2018-09-19T07:31:29.533Z,60.42
2018-09-19T07:33:53.493Z,60.88
2018-09-19T07:36:17.394Z,59.84
2018-09-19T07:38:41.388Z,60.35
2018-09-19T07:41:05.269Z,59.82
2018-09-19T07:43:29.341Z,59.45
2018-09-19T07:45:53.349Z,59.82
2018-09-19T07:48:17.287Z,59.35
2018-09-19T07:50:41.202Z,59.35
2018-09-19T07:53:05.184Z,58.96
2018-09-19T07:55:29.121Z,58.85
2018-09-19T07:57:53.002Z,58.72
2018-09-19T08:00:16.932Z,58.21
2018-09-19T08:02:40.840Z,57.80
2018-09-19T08:05:04.913Z,57.93
2018-09-19T08:07:28.819Z,57.76
2018-09-19T08:09:52.749Z,57.84
2018-09-19T08:12:16.674Z,57.85
2018-09-19T08:14:40.559Z,57.75
2018-09-19T08:17:04.484Z,58.23
2018-09-19T08:19:28.398Z,57.03
2018-09-19T08:21:52.600Z,57.18
2018-09-19T08:24:16.498Z,56.80
2018-09-19T08:26:40.384Z,56.77
2018-09-19T08:29:04.439Z,56.27
2018-09-19T08:31:28.339Z,56.74
2018-09-19T08:33:52.368Z,55.88
2018-09-19T08:36:16.262Z,55.59
2018-09-19T08:38:40.196Z,55.03
2018-09-19T08:41:04.070Z,55.22
2018-09-19T08:43:27.983Z,54.76
2018-09-19T08:45:51.888Z,54.83
2018-09-19T08:48:15.804Z,54.45
2018-09-19T08:50:39.682Z,53.15
2018-09-19T08:53:04.042Z,53.79
2018-09-19T08:55:27.912Z,53.37
2018-09-19T08:57:51.834Z,52.76
2018-09-19T09:00:15.710Z,52.70
2018-09-19T09:02:39.862Z,52.68
2018-09-19T09:05:03.749Z,52.53
2018-09-19T09:07:27.671Z,51.87
2018-09-19T09:09:51.619Z,51.30
2018-09-19T09:12:15.680Z,52.10
2018-09-19T09:14:39.591Z,51.46
2018-09-19T09:17:03.470Z,51.02
2018-09-19T09:19:27.597Z,50.84
2018-09-19T09:21:51.487Z,49.79
2018-09-19T09:24:15.446Z,50.30
2018-09-19T09:26:39.573Z,50.89
2018-09-19T09:29:03.474Z,50.12
2018-09-19T09:31:27.401Z,48.46
2018-09-19T09:33:51.482Z,48.67
2018-09-19T09:36:15.449Z,48.21
2018-09-19T09:38:39.348Z,48.88
2018-09-19T09:41:03.243Z,47.90
2018-09-19T09:43:27.220Z,48.12
2018-09-19T09:45:51.176Z,47.45
2018-09-19T09:48:15.052Z,46.47
2018-09-19T09:50:38.925Z,45.79
2018-09-19T09:53:02.892Z,46.03
2018-09-19T09:55:26.782Z,45.62
2018-09-19T09:57:50.673Z,45.94
2018-09-19T10:00:19.017Z,44.99
2018-09-19T10:02:42.908Z,44.93
2018-09-19T10:05:06.821Z,45.29
2018-09-19T10:07:30.833Z,44.07
2018-09-19T10:09:54.781Z,44.52
2018-09-19T10:12:18.742Z,44.47
2018-09-19T10:14:42.627Z,43.61
2018-09-19T10:17:06.661Z,44.27
2018-09-19T10:19:30.810Z,44.91
2018-09-19T10:21:54.704Z,44.17
2018-09-19T10:24:18.710Z,44.33
2018-09-19T10:26:42.619Z,43.38
2018-09-19T10:29:06.530Z,43.94
2018-09-19T10:31:30.455Z,42.98
2018-09-19T10:33:54.352Z,42.57
2018-09-19T10:36:18.362Z,42.26
2018-09-19T10:38:42.271Z,42.97
2018-09-19T10:41:06.304Z,43.33
2018-09-19T10:43:30.325Z,43.01
2018-09-19T10:45:54.207Z,43.62
2018-09-19T10:48:18.127Z,42.98
2018-09-19T10:50:42.063Z,42.48
2018-09-19T10:53:06.003Z,42.40
2018-09-19T10:55:30.015Z,41.98
2018-09-19T10:57:53.904Z,41.66
2018-09-19T11:00:17.808Z,42.10
2018-09-19T11:02:41.830Z,41.40
2018-09-19T11:05:05.737Z,43.04
2018-09-19T11:07:29.650Z,43.02
2018-09-19T11:09:53.691Z,42.68
2018-09-19T11:12:17.738Z,41.75
2018-09-19T11:14:41.644Z,41.59
2018-09-19T11:17:05.644Z,41.61
2018-09-19T11:19:29.713Z,41.30
2018-09-19T11:21:53.718Z,40.24
2018-09-19T11:24:17.617Z,40.75
2018-09-19T11:26:41.571Z,40.99
2018-09-19T11:29:05.503Z,39.78
2018-09-19T11:31:29.413Z,40.28
2018-09-19T11:33:53.379Z,40.10
2018-09-19T11:36:17.251Z,40.75
2018-09-19T11:38:41.204Z,39.21
2018-09-19T11:41:05.357Z,38.54
2018-09-19T11:43:29.243Z,38.55
2018-09-19T11:45:53.174Z,38.68
2018-09-19T11:48:17.108Z,38.46
2018-09-19T11:50:41.094Z,39.75
2018-09-19T11:53:08.982Z,38.52
2018-09-19T11:55:32.861Z,37.93
2018-09-19T11:57:56.923Z,38.49
2018-09-19T12:00:20.814Z,37.99
2018-09-19T12:02:44.689Z,37.93
2018-09-19T12:05:08.618Z,37.61
2018-09-19T12:07:33.701Z,37.78
2018-09-19T12:09:57.667Z,37.12
2018-09-19T12:12:21.631Z,37.61
2018-09-19T12:14:45.536Z,36.20
2018-09-19T12:17:09.448Z,34.09
2018-09-19T12:19:33.377Z,30.62
2018-09-19T12:21:57.379Z,27.48
2018-09-19T12:24:21.246Z,26.92
2018-09-19T12:26:45.157Z,28.48
2018-09-19T12:29:09.174Z,26.35
2018-09-19T12:31:33.061Z,26.29
2018-09-19T12:33:57.066Z,25.57
2018-09-19T12:36:21.064Z,25.00
2018-09-19T12:38:44.959Z,24.77
2018-09-19T12:41:08.867Z,25.32
2018-09-19T12:43:32.853Z,23.87
2018-09-19T12:45:56.740Z,25.43
2018-09-19T12:48:20.652Z,23.85
2018-09-19T12:50:44.588Z,24.23
2018-09-19T12:53:08.535Z,23.83
2018-09-19T12:55:32.531Z,23.58
2018-09-19T12:57:56.470Z,23.87
2018-09-19T13:00:20.399Z,24.21
2018-09-19T13:02:44.397Z,22.46
2018-09-19T13:05:08.423Z,22.75
2018-09-19T13:07:32.423Z,23.57
2018-09-19T13:09:56.340Z,22.95
2018-09-19T13:12:20.218Z,24.66
2018-09-19T13:14:44.151Z,23.12
2018-09-19T13:17:08.149Z,22.65
2018-09-19T13:19:32.060Z,22.95
2018-09-19T13:21:55.974Z,22.61
2018-09-19T13:24:20.163Z,21.42
2018-09-19T13:26:44.100Z,22.30
2018-09-19T13:29:07.958Z,22.97
2018-09-19T13:31:31.860Z,21.88
2018-09-19T13:33:55.768Z,22.58
2018-09-19T13:36:19.796Z,22.54
2018-09-19T13:38:43.666Z,22.76
2018-09-19T13:41:07.777Z,22.83
2018-09-19T13:43:31.802Z,21.62
2018-09-19T13:45:55.691Z,22.31
2018-09-19T13:48:19.551Z,22.10
2018-09-19T13:51:18.109Z,23.92
2018-09-19T13:53:42.160Z,21.78
2018-09-19T13:56:06.046Z,22.87
2018-09-19T13:58:29.951Z,22.62
2018-09-19T14:00:54.029Z,24.02
2018-09-19T14:03:17.924Z,24.08
2018-09-19T14:05:41.839Z,23.65
2018-09-19T14:08:06.274Z,24.57
2018-09-19T14:10:30.138Z,24.33
2018-09-19T14:12:54.157Z,25.25
2018-09-19T14:15:18.064Z,24.34
2018-09-19T14:17:41.952Z,23.89
2018-09-19T14:20:05.916Z,25.53
2018-09-19T14:22:29.829Z,23.94
2018-09-19T14:24:53.760Z,23.81
2018-09-19T14:27:17.708Z,23.09
2018-09-19T14:29:41.581Z,22.61
2018-09-19T14:32:05.487Z,23.61
2018-09-19T14:34:29.406Z,24.18
2018-09-19T14:36:53.318Z,24.54
2018-09-19T14:39:17.211Z,25.39
2018-09-19T14:41:41.166Z,26.10
2018-09-19T14:44:05.184Z,24.38
2018-09-19T14:46:29.083Z,25.31
2018-09-19T14:48:53.005Z,24.95
2018-09-19T14:51:16.951Z,25.07
2018-09-19T14:53:40.854Z,26.97
2018-09-19T14:56:04.942Z,24.23
2018-09-19T14:58:29.009Z,25.46
2018-09-19T15:00:52.935Z,26.36
2018-09-19T15:03:16.976Z,27.53
2018-09-19T15:05:40.868Z,26.86
2018-09-19T15:08:04.778Z,27.43
2018-09-19T15:10:28.727Z,27.57
2018-09-19T15:12:52.661Z,26.97
2018-09-19T15:15:16.734Z,27.15
2018-09-19T15:17:40.819Z,28.81
2018-09-19T15:20:04.780Z,27.74
2018-09-19T15:22:28.688Z,28.56
2018-09-19T15:24:52.600Z,27.89
2018-09-19T15:27:16.551Z,27.43
2018-09-19T15:29:40.508Z,26.31
2018-09-19T15:32:04.491Z,27.26
2018-09-19T15:34:28.490Z,28.02
2018-09-19T15:36:52.450Z,30.83
2018-09-19T15:39:16.329Z,29.48
2018-09-19T15:41:40.369Z,29.40
2018-09-19T15:44:04.349Z,29.21
2018-09-19T15:46:28.298Z,28.79
2018-09-19T15:48:52.300Z,28.65
2018-09-19T15:51:16.210Z,28.80
2018-09-19T15:53:40.153Z,29.26
2018-09-19T15:56:04.067Z,28.97
2018-09-19T15:58:27.983Z,29.70
2018-09-19T16:00:51.928Z,29.63
2018-09-19T16:03:15.874Z,30.39
2018-09-19T16:05:39.882Z,30.97
2018-09-19T16:08:03.787Z,31.87
2018-09-19T16:10:27.744Z,31.67
2018-09-19T16:12:51.720Z,31.71
2018-09-19T16:15:15.627Z,32.48
2018-09-19T16:17:39.588Z,33.03
2018-09-19T16:20:03.541Z,35.03
2018-09-19T16:22:27.457Z,36.33
2018-09-19T16:24:51.612Z,36.06
2018-09-19T16:27:15.521Z,36.52
2018-09-19T16:29:39.495Z,36.01
2018-09-19T16:32:03.536Z,36.21
2018-09-19T16:34:27.564Z,36.50
2018-09-19T16:36:51.612Z,37.22
2018-09-19T16:39:15.511Z,36.76
2018-09-19T16:41:39.444Z,37.05
2018-09-19T16:44:03.470Z,37.76
2018-09-19T16:46:27.360Z,36.97
2018-09-19T16:48:51.292Z,37.51
2018-09-19T16:51:15.269Z,38.12
2018-09-19T16:53:39.247Z,37.68
2018-09-19T16:56:03.264Z,37.76
2018-09-19T16:58:27.208Z,38.45
2018-09-19T17:00:51.174Z,37.21
2018-09-19T17:03:15.392Z,38.32
2018-09-19T17:05:39.319Z,37.05
2018-09-19T17:08:03.281Z,38.71
2018-09-19T17:10:27.144Z,37.53
2018-09-19T17:12:51.056Z,37.81
2018-09-19T17:15:15.093Z,37.99
2018-09-19T17:17:39.614Z,37.76
2018-09-19T17:20:03.576Z,38.17
2018-09-19T17:22:27.553Z,37.99
2018-09-19T17:24:51.464Z,38.04
2018-09-19T17:27:15.541Z,37.30
2018-09-19T17:29:39.439Z,38.25
2018-09-19T17:32:03.579Z,38.36
2018-09-19T17:34:27.723Z,38.08
2018-09-19T17:36:51.672Z,38.35
2018-09-19T17:39:15.738Z,38.30
2018-09-19T17:41:39.692Z,38.47
2018-09-19T17:44:03.644Z,37.91
2018-09-19T17:46:27.678Z,37.76
2018-09-19T17:48:51.637Z,37.81
2018-09-19T17:51:15.927Z,38.19
2018-09-19T17:53:39.846Z,38.81
2018-09-19T17:56:03.830Z,38.84
2018-09-19T17:58:27.919Z,39.17
2018-09-19T18:00:51.925Z,39.58
2018-09-19T18:03:15.848Z,39.07
2018-09-19T18:05:39.893Z,39.31
2018-09-19T18:08:03.921Z,39.24
2018-09-19T18:10:27.894Z,39.78
2018-09-19T18:12:51.816Z,39.86
2018-09-19T18:15:15.829Z,40.06
2018-09-19T18:17:39.804Z,40.00
2018-09-19T18:20:03.804Z,40.53
2018-09-19T18:22:27.765Z,40.76
2018-09-19T18:24:51.723Z,40.02
2018-09-19T18:27:15.665Z,40.41
2018-09-19T18:29:39.630Z,41.11
2018-09-19T18:32:03.638Z,40.34
2018-09-19T18:34:27.618Z,41.33
2018-09-19T18:36:51.717Z,41.33
2018-09-19T18:39:15.677Z,40.95
2018-09-19T18:41:39.595Z,41.67
2018-09-19T18:44:03.682Z,42.23
2018-09-19T18:46:27.608Z,42.08
2018-09-19T18:48:51.573Z,41.50
2018-09-19T18:51:15.538Z,43.16
2018-09-19T18:53:39.459Z,42.47
2018-09-19T18:56:03.365Z,42.40
2018-09-19T18:58:27.344Z,41.85
2018-09-19T19:00:51.296Z,42.71
2018-09-19T19:03:15.375Z,42.48
2018-09-19T19:05:39.348Z,42.47
2018-09-19T19:08:04.223Z,43.07
2018-09-19T19:10:28.080Z,43.08
2018-09-19T19:12:52.024Z,43.43
2018-09-19T19:15:15.932Z,42.72
2018-09-19T19:17:40.059Z,42.89
2018-09-19T19:20:04.099Z,43.15
2018-09-19T19:22:28.038Z,42.60
2018-09-19T19:24:51.953Z,43.35
2018-09-19T19:27:15.887Z,43.34
2018-09-19T19:29:39.813Z,43.35
2018-09-19T19:32:03.763Z,43.55
2018-09-19T19:34:27.712Z,43.41
2018-09-19T19:36:51.650Z,44.05
2018-09-19T19:39:15.603Z,43.90
2018-09-19T19:41:39.504Z,44.01
2018-09-19T19:44:03.505Z,43.78
2018-09-19T19:46:27.501Z,44.38
2018-09-19T19:48:51.410Z,44.32
2018-09-19T19:51:15.355Z,45.11
2018-09-19T19:53:39.259Z,44.59
2018-09-19T19:56:03.241Z,44.58
2018-09-19T19:58:27.307Z,44.53
2018-09-19T20:00:51.271Z,45.44
2018-09-19T20:03:15.195Z,45.34
2018-09-19T20:05:39.249Z,44.98
2018-09-19T20:08:03.455Z,44.93
2018-09-19T20:10:27.465Z,45.13
2018-09-19T20:12:51.330Z,45.33
2018-09-19T20:15:15.260Z,45.67
2018-09-19T20:17:39.153Z,45.89
2018-09-19T20:20:03.209Z,45.99
2018-09-19T20:22:27.167Z,46.07
2018-09-19T20:24:51.076Z,45.73
2018-09-19T20:27:15.046Z,47.19
2018-09-19T20:29:38.992Z,46.32
2018-09-19T20:32:02.936Z,46.16
2018-09-19T20:34:26.923Z,47.03
2018-09-19T20:36:50.989Z,46.52
2018-09-19T20:39:14.916Z,46.21
2018-09-19T20:41:38.891Z,46.36
2018-09-19T20:44:02.800Z,47.21
2018-09-19T20:46:26.675Z,46.48
2018-09-19T20:48:50.670Z,46.80
2018-09-19T20:51:14.546Z,47.43
2018-09-19T20:53:38.701Z,47.55
2018-09-19T20:56:02.631Z,47.89
2018-09-19T20:58:26.560Z,47.48
2018-09-19T21:00:50.555Z,47.69
2018-09-19T21:03:14.458Z,47.58
2018-09-19T21:05:38.426Z,48.00
2018-09-19T21:08:02.375Z,48.00
2018-09-19T21:10:26.312Z,48.07
2018-09-19T21:12:50.254Z,48.52
2018-09-19T21:15:14.170Z,48.66
2018-09-19T21:17:38.086Z,49.29
2018-09-19T21:20:01.992Z,49.09
2018-09-19T21:22:26.093Z,49.17
2018-09-19T21:24:49.879Z,49.10
2018-09-19T21:27:13.777Z,49.07
2018-09-19T21:29:37.700Z,49.22
2018-09-19T21:32:01.628Z,48.32
2018-09-19T21:34:25.604Z,49.51
2018-09-19T21:36:49.474Z,49.48
2018-09-19T21:39:13.372Z,49.37
2018-09-19T21:41:37.476Z,49.43
2018-09-19T21:44:01.469Z,48.99
2018-09-19T21:46:25.440Z,49.83
2018-09-19T21:48:49.310Z,50.40
2018-09-19T21:51:13.273Z,49.69
2018-09-19T21:53:37.172Z,49.92
2018-09-19T21:56:01.132Z,49.48
2018-09-19T21:58:25.063Z,48.66
2018-09-19T22:00:54.316Z,50.06
2018-09-19T22:03:18.481Z,50.22
2018-09-19T22:05:42.382Z,49.34
2018-09-19T22:08:06.323Z,50.36
2018-09-19T22:10:30.574Z,50.52
2018-09-19T22:12:54.455Z,50.60
2018-09-19T22:15:18.363Z,49.64
2018-09-19T22:17:42.303Z,49.85
2018-09-19T22:20:06.240Z,49.88
2018-09-19T22:22:30.146Z,49.52
2018-09-19T22:24:54.064Z,49.55
2018-09-19T22:27:17.943Z,48.62
2018-09-19T22:29:41.815Z,49.40
2018-09-19T22:32:05.692Z,48.97
2018-09-19T22:34:29.631Z,49.38
2018-09-19T22:36:53.500Z,48.70
2018-09-19T22:39:17.385Z,48.51
2018-09-19T22:41:41.286Z,48.76
2018-09-19T22:44:05.315Z,52.05
2018-09-19T22:46:29.237Z,52.74
2018-09-19T22:48:53.136Z,53.48
2018-09-19T22:51:17.118Z,53.39
2018-09-19T22:53:41.013Z,53.68
2018-09-19T22:56:05.029Z,54.14
2018-09-19T22:58:28.923Z,53.04
2018-09-19T23:00:52.837Z,54.08
2018-09-19T23:03:16.762Z,52.93
2018-09-19T23:05:40.669Z,52.01
2018-09-19T23:08:04.586Z,52.04
2018-09-19T23:10:28.452Z,52.11
2018-09-19T23:12:52.415Z,51.81
2018-09-19T23:15:16.312Z,53.81
2018-09-19T23:17:40.184Z,52.43
2018-09-19T23:20:04.465Z,53.71
2018-09-19T23:22:28.351Z,53.87
2018-09-19T23:24:52.339Z,54.38
2018-09-19T23:27:16.251Z,54.56
2018-09-19T23:29:40.182Z,52.17
2018-09-19T23:32:04.098Z,52.37
2018-09-19T23:34:27.961Z,51.95
2018-09-19T23:36:51.897Z,51.85
2018-09-19T23:39:15.831Z,50.68
2018-09-19T23:41:39.728Z,51.57
2018-09-19T23:44:03.614Z,50.63
2018-09-19T23:46:27.536Z,51.40
2018-09-19T23:48:51.431Z,50.83
2018-09-19T23:51:15.333Z,50.71
2018-09-19T23:53:39.214Z,50.38
2018-09-19T23:56:03.275Z,51.24
2018-09-19T23:58:27.154Z,53.34
